createdAt,value
2022-08-08T00:00:54.154Z,99909.81
2022-08-08T00:02:54.965Z,99898.03
2022-08-08T00:06:00.832Z,99903.31
2022-08-08T00:08:27.282Z,99898.31
2022-08-08T00:11:00.596Z,99892.53
2022-08-08T00:14:16.349Z,99890.03
2022-08-08T00:16:41.211Z,99882.41
2022-08-08T00:19:17.408Z,99885.63
2022-08-08T00:21:50.787Z,99888.88
2022-08-08T00:24:24.070Z,99880.25
2022-08-08T00:27:05.916Z,99885.22
2022-08-08T00:29:46.993Z,99880.88
2022-08-08T00:32:35.080Z,99883.38
2022-08-08T00:35:37.476Z,99885.97
2022-08-08T00:38:31.345Z,99889.47
2022-08-08T00:41:55.160Z,99889.53
2022-08-08T00:45:21.692Z,99894.53
2022-08-08T00:48:58.999Z,99885.97
2022-08-08T00:51:59.235Z,99884.22
2022-08-08T00:54:51.272Z,99893.50
2022-08-08T00:57:57.222Z,99893.56
2022-08-08T01:00:28.357Z,99890.16
2022-08-08T01:04:01.425Z,99885.09
2022-08-08T01:07:06.028Z,99880.94
2022-08-08T01:10:16.987Z,99875.00
2022-08-08T01:13:43.915Z,99878.47
2022-08-08T01:17:34.911Z,99876.94
2022-08-08T01:20:36.829Z,99880.59
2022-08-08T01:24:06.467Z,99890.94
2022-08-08T01:27:07.002Z,99876.88
2022-08-08T01:29:58.767Z,99890.72
2022-08-08T01:33:33.883Z,99895.88
2022-08-08T01:36:55.450Z,99886.66
2022-08-08T01:39:42.430Z,99883.31
2022-08-08T01:42:21.243Z,99885.84
2022-08-08T01:45:17.801Z,99890.88
2022-08-08T01:48:23.399Z,99890.06
2022-08-08T01:51:29.844Z,99887.44
2022-08-08T01:55:25.903Z,99879.66
2022-08-08T01:57:21.688Z,99880.31
2022-08-08T02:00:21.108Z,99873.56
2022-08-08T02:03:55.178Z,99871.97
2022-08-08T02:06:32.747Z,99872.09
2022-08-08T02:10:02.421Z,99873.75
2022-08-08T02:12:21.277Z,99878.78
2022-08-08T02:14:58.835Z,99875.28
2022-08-08T02:17:43.268Z,99870.09
2022-08-08T02:21:01.590Z,99881.81
2022-08-08T02:23:22.685Z,99886.72
2022-08-08T02:26:00.696Z,99887.53
2022-08-08T02:28:48.323Z,99892.59
2022-08-08T02:31:58.224Z,99889.19
2022-08-08T02:35:08.507Z,99891.78
2022-08-08T02:37:57.150Z,99884.13
2022-08-08T02:40:44.999Z,99883.28
2022-08-08T02:44:37.408Z,99894.28
2022-08-08T02:47:09.458Z,99890.94
2022-08-08T02:50:18.068Z,99892.78
2022-08-08T02:53:11.129Z,99897.06
2022-08-08T02:56:10.862Z,99891.97
2022-08-08T02:59:37.304Z,99901.28
2022-08-08T03:02:50.525Z,99900.34
2022-08-08T03:06:34.436Z,99900.31
2022-08-08T03:09:55.417Z,99905.38
2022-08-08T03:13:07.428Z,99894.34
2022-08-08T03:16:35.277Z,99898.59
2022-08-08T03:19:50.815Z,99904.50
2022-08-08T03:22:38.908Z,99902.78
2022-08-08T03:25:14.771Z,99905.34
2022-08-08T03:27:56.718Z,99892.66
2022-08-08T03:30:27.272Z,99899.63
2022-08-08T03:33:55.078Z,99897.31
2022-08-08T03:36:03.780Z,99898.31
2022-08-08T03:38:57.367Z,99901.69
2022-08-08T03:42:28.821Z,99899.34
2022-08-08T03:44:25.213Z,99903.44
2022-08-08T03:46:54.199Z,99901.63
2022-08-08T03:49:57.709Z,99911.75
2022-08-08T03:52:16.220Z,99907.53
2022-08-08T03:55:02.104Z,99907.63
2022-08-08T03:58:32.141Z,99909.41
2022-08-08T04:00:30.684Z,99911.06
2022-08-08T04:03:11.600Z,99916.13
2022-08-08T04:05:49.738Z,99900.97
2022-08-08T04:08:33.514Z,99905.97
2022-08-08T04:11:11.407Z,99911.75
2022-08-08T04:14:03.241Z,99911.75
2022-08-08T04:16:38.894Z,99922.91
2022-08-08T04:19:25.496Z,99925.44
2022-08-08T04:22:00.079Z,99919.56
2022-08-08T04:24:34.366Z,99928.91
2022-08-08T04:27:10.350Z,99938.34
2022-08-08T04:30:00.837Z,99930.78
2022-08-08T04:32:36.958Z,99934.16
2022-08-08T04:35:13.498Z,99926.50
2022-08-08T04:37:43.342Z,99927.31
2022-08-08T04:40:18.388Z,99935.00
2022-08-08T04:42:57.379Z,99938.25
2022-08-08T04:45:31.032Z,99934.63
2022-08-08T04:48:02.404Z,99943.78
2022-08-08T04:50:38.404Z,99942.09
2022-08-08T04:53:14.294Z,99945.44
2022-08-08T04:56:01.935Z,99935.28
2022-08-08T04:58:34.133Z,99939.47
2022-08-08T05:01:05.808Z,99941.03
2022-08-08T05:04:11.359Z,99949.47
2022-08-08T05:06:29.087Z,99943.44
2022-08-08T05:09:02.896Z,99949.38
2022-08-08T05:11:39.381Z,99957.09
2022-08-08T05:14:11.971Z,99947.91
2022-08-08T05:16:52.484Z,99952.25
2022-08-08T05:20:10.050Z,99950.56
2022-08-08T05:22:18.180Z,99951.44
2022-08-08T05:24:49.774Z,99957.47
2022-08-08T05:27:21.950Z,99953.22
2022-08-08T05:29:53.032Z,99949.69
2022-08-08T05:32:29.940Z,99961.50
2022-08-08T05:35:05.268Z,99954.72
2022-08-08T05:37:52.299Z,99949.63
2022-08-08T05:40:29.193Z,99954.53
2022-08-08T05:43:38.824Z,99956.16
2022-08-08T05:46:03.698Z,99951.78
2022-08-08T05:48:37.752Z,99959.38
2022-08-08T05:51:13.325Z,99963.56
2022-08-08T05:54:25.516Z,99955.03
2022-08-08T05:56:42.630Z,99968.59
2022-08-08T05:59:57.677Z,99959.22
2022-08-08T06:02:38.759Z,99965.16
2022-08-08T06:05:34.550Z,99954.94
2022-08-08T06:08:09.957Z,99961.00
2022-08-08T06:10:56.440Z,99966.13
2022-08-08T06:13:30.128Z,99959.22
2022-08-08T06:16:04.709Z,99963.34
2022-08-08T06:18:55.097Z,99957.16
2022-08-08T06:21:28.357Z,99962.06
2022-08-08T06:24:27.046Z,99961.84
2022-08-08T06:27:05.205Z,99951.53
2022-08-08T06:29:59.236Z,99951.53
2022-08-08T06:32:30.694Z,99953.22
2022-08-08T06:36:03.939Z,99959.19
2022-08-08T06:38:04.953Z,99962.72
2022-08-08T06:40:39.510Z,99966.22
2022-08-08T06:43:30.523Z,99969.59
2022-08-08T06:46:08.637Z,99968.75
2022-08-08T06:48:38.333Z,99967.13
2022-08-08T06:51:08.627Z,99963.72
2022-08-08T06:53:51.241Z,99971.31
2022-08-08T06:56:26.326Z,99967.84
2022-08-08T06:58:55.036Z,99971.03
2022-08-08T07:02:27.856Z,99975.09
2022-08-08T07:04:40.394Z,99973.53
2022-08-08T07:07:13.857Z,99975.91
2022-08-08T07:09:59.939Z,99971.53
2022-08-08T07:12:41.196Z,99988.28
2022-08-08T07:15:23.341Z,99985.69
2022-08-08T07:18:35.091Z,99984.81
2022-08-08T07:21:02.114Z,99980.53
2022-08-08T07:24:01.726Z,99983.81
2022-08-08T07:26:35.270Z,99983.06
2022-08-08T07:29:08.148Z,99989.84
2022-08-08T07:31:48.991Z,99984.63
2022-08-08T07:34:26.791Z,99993.03
2022-08-08T07:37:11.977Z,99991.25
2022-08-08T07:39:56.039Z,99997.22
2022-08-08T07:42:34.415Z,100003.13
2022-08-08T07:45:06.577Z,100003.00
2022-08-08T07:47:39.762Z,100007.94
2022-08-08T07:50:23.406Z,100005.28
2022-08-08T07:53:00.606Z,100004.16
2022-08-08T07:55:36.458Z,100003.09
2022-08-08T07:58:20.953Z,100000.38
2022-08-08T08:00:53.194Z,99998.63
2022-08-08T08:03:43.349Z,100005.34
2022-08-08T08:06:16.420Z,100005.44
2022-08-08T08:08:52.482Z,100007.91
2022-08-08T08:11:33.581Z,100001.81
2022-08-08T08:14:08.241Z,100005.06
2022-08-08T08:16:48.767Z,99999.00
2022-08-08T08:19:22.749Z,99997.22
2022-08-08T08:21:57.790Z,99991.06
2022-08-08T08:24:43.028Z,100000.94
2022-08-08T08:27:14.724Z,100002.31
2022-08-08T08:29:51.016Z,99998.00
2022-08-08T08:32:31.597Z,99991.22
2022-08-08T08:35:06.707Z,99987.00
2022-08-08T08:37:59.143Z,100003.91
2022-08-08T08:40:25.410Z,99997.97
2022-08-08T08:42:57.021Z,99995.31
2022-08-08T08:45:27.803Z,99995.28
2022-08-08T08:48:01.510Z,100000.22
2022-08-08T08:50:36.343Z,99997.50
2022-08-08T08:53:27.624Z,100004.09
2022-08-08T08:56:09.319Z,99999.72
2022-08-08T08:58:50.100Z,100004.75
2022-08-08T09:01:36.052Z,100004.69
2022-08-08T09:04:31.806Z,99996.13
2022-08-08T09:07:00.151Z,99994.31
2022-08-08T09:09:39.733Z,99994.19
2022-08-08T09:12:23.627Z,99995.81
2022-08-08T09:14:56.220Z,99991.47
2022-08-08T09:17:41.547Z,99989.72
2022-08-08T09:22:04.770Z,99990.47
2022-08-08T09:23:03.953Z,99992.84
2022-08-08T09:25:54.464Z,99989.31
2022-08-08T09:28:37.244Z,99990.00
2022-08-08T09:31:13.519Z,99992.56
2022-08-08T09:34:28.423Z,99979.50
2022-08-08T09:37:23.696Z,99986.06
2022-08-08T09:39:36.902Z,99986.78
2022-08-08T09:42:20.740Z,99985.69
2022-08-08T09:45:04.180Z,99984.41
2022-08-08T09:48:09.809Z,99975.56
2022-08-08T09:50:32.423Z,99977.84
2022-08-08T09:53:23.685Z,99972.47
2022-08-08T09:56:04.794Z,99966.28
2022-08-08T09:58:40.621Z,99975.44
2022-08-08T10:01:14.625Z,99972.56
2022-08-08T10:03:55.808Z,99966.47
2022-08-08T10:06:29.414Z,99964.78
2022-08-08T10:08:57.891Z,99964.97
2022-08-08T10:12:28.273Z,99967.97
2022-08-08T10:14:28.595Z,99963.31
2022-08-08T10:17:38.667Z,99965.97
2022-08-08T10:19:59.954Z,99964.34
2022-08-08T10:22:32.009Z,99964.91
2022-08-08T10:25:05.615Z,99972.16
2022-08-08T10:27:43.325Z,99968.31
2022-08-08T10:30:16.749Z,99968.75
2022-08-08T10:33:01.591Z,99958.81
2022-08-08T10:36:19.993Z,99970.72
2022-08-08T10:38:21.596Z,99963.38
2022-08-08T10:40:53.896Z,99962.41
2022-08-08T10:43:23.112Z,99964.81
2022-08-08T10:45:57.112Z,99968.72
2022-08-08T10:48:37.279Z,99959.06
2022-08-08T10:51:21.419Z,99955.81
2022-08-08T10:53:57.843Z,99967.06
2022-08-08T10:56:27.355Z,99967.84
2022-08-08T10:59:00.321Z,99968.66
2022-08-08T11:01:33.512Z,99959.94
2022-08-08T11:04:04.828Z,99957.13
2022-08-08T11:06:34.953Z,99958.56
2022-08-08T11:09:15.347Z,99959.84
2022-08-08T11:12:06.466Z,99958.38
2022-08-08T11:14:49.598Z,99966.22
2022-08-08T11:18:00.148Z,99974.22
2022-08-08T11:20:11.008Z,99972.81
2022-08-08T11:22:41.894Z,99971.69
2022-08-08T11:25:16.288Z,99965.28
2022-08-08T11:27:48.904Z,99964.81
2022-08-08T11:30:24.583Z,99957.19
2022-08-08T11:32:58.279Z,99959.13
2022-08-08T11:35:38.490Z,99957.94
2022-08-08T11:38:35.797Z,99964.38
2022-08-08T11:41:01.095Z,99959.56
2022-08-08T11:43:39.467Z,99962.13
2022-08-08T11:46:14.003Z,99966.28
2022-08-08T11:48:47.978Z,99965.59
2022-08-08T11:51:38.518Z,99967.63
2022-08-08T11:54:26.777Z,99961.25
2022-08-08T11:56:57.942Z,99971.66
2022-08-08T11:59:58.303Z,99970.09
2022-08-08T12:02:34.151Z,99966.88
2022-08-08T12:05:07.484Z,99974.97
2022-08-08T12:07:46.881Z,99970.41
2022-08-08T12:10:20.716Z,99981.22
2022-08-08T12:12:54.566Z,99977.44
2022-08-08T12:15:28.769Z,99987.19
2022-08-08T12:17:56.800Z,99977.97
2022-08-08T12:20:25.487Z,99980.75
2022-08-08T12:22:57.048Z,99983.00
2022-08-08T12:25:29.656Z,99984.78
2022-08-08T12:28:15.882Z,99987.38
2022-08-08T12:30:47.941Z,99988.19
2022-08-08T12:33:19.794Z,99999.22
2022-08-08T12:35:52.861Z,99991.50
2022-08-08T12:38:30.379Z,100003.66
2022-08-08T12:41:05.754Z,100005.06
2022-08-08T12:44:00.528Z,100006.44
2022-08-08T12:46:29.410Z,99994.75
2022-08-08T12:49:25.576Z,100005.09
2022-08-08T12:51:59.046Z,100005.44
2022-08-08T12:54:33.374Z,100009.06
2022-08-08T12:57:15.161Z,100010.19
2022-08-08T13:00:04.809Z,100008.50
2022-08-08T13:02:51.386Z,100004.97
2022-08-08T13:05:26.901Z,100014.31
2022-08-08T13:08:16.795Z,100016.91
2022-08-08T13:10:56.303Z,100024.88
2022-08-08T13:13:35.340Z,100011.22
2022-08-08T13:16:20.588Z,100017.69
2022-08-08T13:18:58.205Z,100009.47
2022-08-08T13:21:55.421Z,100011.53
2022-08-08T13:24:18.608Z,100009.47
2022-08-08T13:27:10.706Z,100008.84
2022-08-08T13:29:50.679Z,100012.22
2022-08-08T13:32:25.249Z,100007.84
2022-08-08T13:34:57.670Z,100007.09
2022-08-08T13:38:05.776Z,100010.44
2022-08-08T13:40:17.777Z,99999.44
2022-08-08T13:42:55.116Z,100000.19
2022-08-08T13:45:24.037Z,99994.34
2022-08-08T13:47:58.937Z,99992.69
2022-08-08T13:50:35.329Z,99993.53
2022-08-08T13:53:22.656Z,99989.50
2022-08-08T13:55:59.008Z,99993.78
2022-08-08T13:58:29.428Z,99994.53
2022-08-08T14:00:57.812Z,99994.53
2022-08-08T14:03:52.780Z,99995.22
2022-08-08T14:06:20.572Z,99989.34
2022-08-08T14:09:25.193Z,99992.75
2022-08-08T14:11:50.193Z,99986.94
2022-08-08T14:14:21.231Z,99977.81
2022-08-08T14:16:55.450Z,99986.09
2022-08-08T14:19:57.577Z,99985.00
2022-08-08T14:22:26.359Z,100001.63
2022-08-08T14:24:59.751Z,100007.16
2022-08-08T14:27:30.784Z,99997.38
2022-08-08T14:30:04.445Z,99996.31
2022-08-08T14:32:47.676Z,99989.50
2022-08-08T14:35:28.344Z,99974.97
2022-08-08T14:38:09.437Z,99985.91
2022-08-08T14:40:59.334Z,99980.75
2022-08-08T14:44:02.850Z,99979.88
2022-08-08T14:46:18.517Z,99974.03
2022-08-08T14:49:09.398Z,99980.50
2022-08-08T14:51:53.093Z,99979.97
2022-08-08T14:54:28.483Z,99972.59
2022-08-08T14:56:57.976Z,99970.38
2022-08-08T14:59:43.970Z,99970.56
2022-08-08T15:02:15.641Z,99975.84
2022-08-08T15:04:45.464Z,99972.53
2022-08-08T15:07:22.222Z,99980.22
2022-08-08T15:09:52.699Z,99987.00
2022-08-08T15:12:27.461Z,99991.16
2022-08-08T15:14:56.206Z,99999.56
2022-08-08T15:17:24.783Z,99991.25
2022-08-08T15:19:54.560Z,99989.00
2022-08-08T15:22:25.397Z,99990.03
2022-08-08T15:24:54.413Z,99982.63
2022-08-08T15:28:04.035Z,99987.16
2022-08-08T15:30:14.705Z,99987.31
2022-08-08T15:32:43.239Z,99987.34
2022-08-08T15:35:11.830Z,99994.03
2022-08-08T15:37:45.706Z,99992.09
2022-08-08T15:40:15.267Z,99986.84
2022-08-08T15:42:47.460Z,99985.19
2022-08-08T15:45:17.501Z,99978.31
2022-08-08T15:48:15.698Z,99978.97
2022-08-08T15:50:56.804Z,99972.63
2022-08-08T15:53:40.399Z,99977.34
2022-08-08T15:56:16.446Z,99976.94
2022-08-08T15:58:49.341Z,99980.06
2022-08-08T16:01:21.105Z,99973.13
2022-08-08T16:03:51.969Z,99972.28
2022-08-08T16:06:27.404Z,99963.13
2022-08-08T16:09:02.496Z,99954.03
2022-08-08T16:13:12.068Z,99964.44
2022-08-08T16:14:36.408Z,99961.69
2022-08-08T16:17:06.110Z,99960.94
2022-08-08T16:20:00.320Z,99963.50
2022-08-08T16:22:30.288Z,99969.53
2022-08-08T16:25:11.454Z,99960.84
2022-08-08T16:27:43.081Z,99964.97
2022-08-08T16:30:36.220Z,99965.56
2022-08-08T16:33:04.801Z,99966.16
2022-08-08T16:35:33.863Z,99954.34
2022-08-08T16:38:01.783Z,99966.94
2022-08-08T16:40:32.879Z,99967.78
2022-08-08T16:43:00.784Z,99970.38
2022-08-08T16:46:37.397Z,99967.84
2022-08-08T16:48:17.077Z,99969.41
2022-08-08T16:50:48.017Z,99966.88
2022-08-08T16:55:00.272Z,99971.22
2022-08-08T16:56:08.853Z,99971.28
2022-08-08T16:58:42.599Z,99970.53
2022-08-08T17:01:12.958Z,99968.25
2022-08-08T17:03:59.985Z,99976.88
2022-08-08T17:06:36.911Z,99978.78
2022-08-08T17:09:06.503Z,99982.41
2022-08-08T17:11:39.430Z,99986.00
2022-08-08T17:14:19.585Z,99987.00
2022-08-08T17:16:57.689Z,99988.13
2022-08-08T17:19:29.110Z,99993.38
2022-08-08T17:21:57.965Z,99996.16
2022-08-08T17:24:30.535Z,100005.63
2022-08-08T17:27:01.781Z,99992.13
2022-08-08T17:29:33.671Z,100004.22
2022-08-08T17:32:02.605Z,99997.50
2022-08-08T17:34:53.417Z,100009.41
2022-08-08T17:37:19.448Z,100007.88
2022-08-08T17:40:11.065Z,100006.38
2022-08-08T17:42:36.998Z,100006.53
2022-08-08T17:45:06.522Z,100013.44
2022-08-08T17:47:40.512Z,100023.75
2022-08-08T17:50:10.864Z,100022.19
2022-08-08T17:52:43.198Z,100018.94
2022-08-08T17:56:06.022Z,100024.06
2022-08-08T17:58:04.864Z,100030.06
2022-08-08T18:00:32.816Z,100034.41
2022-08-08T18:03:09.363Z,100024.34
2022-08-08T18:05:48.588Z,100024.53
2022-08-08T18:08:25.186Z,100032.13
2022-08-08T18:11:11.547Z,100034.69
2022-08-08T18:13:45.233Z,100033.91
2022-08-08T18:16:20.184Z,100044.16
2022-08-08T18:18:53.110Z,100036.47
2022-08-08T18:21:34.446Z,100043.34
2022-08-08T18:24:04.240Z,100042.59
2022-08-08T18:26:33.777Z,100033.47
2022-08-08T18:29:05.984Z,100044.44
2022-08-08T18:31:33.968Z,100054.72
2022-08-08T18:34:25.188Z,100052.19
2022-08-08T18:36:50.570Z,100055.59
2022-08-08T18:39:28.573Z,100059.88
2022-08-08T18:42:03.019Z,100059.09
2022-08-08T18:44:36.003Z,100058.38
2022-08-08T18:47:05.253Z,100061.84
2022-08-08T18:49:57.979Z,100071.16
2022-08-08T18:52:23.458Z,100074.56
2022-08-08T18:55:00.203Z,100076.31
2022-08-08T18:57:41.231Z,100073.84
2022-08-08T19:00:15.571Z,100081.59
2022-08-08T19:02:55.746Z,100081.72
2022-08-08T19:05:32.499Z,100086.81
2022-08-08T19:08:25.473Z,100091.94
2022-08-08T19:10:59.320Z,100088.56
2022-08-08T19:13:52.456Z,100090.25
2022-08-08T19:16:19.925Z,100087.72
2022-08-08T19:18:57.426Z,100096.22
2022-08-08T19:21:33.531Z,100099.63
2022-08-08T19:24:05.147Z,100095.38
2022-08-08T19:26:34.976Z,100092.00
2022-08-08T19:29:03.017Z,100086.22
2022-08-08T19:31:34.925Z,100094.84
2022-08-08T19:34:30.193Z,100087.34
2022-08-08T19:36:55.213Z,100095.06
2022-08-08T19:39:26.337Z,100104.44
2022-08-08T19:42:03.111Z,100093.44
2022-08-08T19:44:43.400Z,100104.44
2022-08-08T19:47:16.264Z,100097.66
2022-08-08T19:50:00.516Z,100112.72
2022-08-08T19:52:35.303Z,100112.66
2022-08-08T19:55:08.893Z,100106.66
2022-08-08T19:57:37.889Z,100103.22
2022-08-08T20:00:11.616Z,100116.81
2022-08-08T20:02:58.320Z,100111.75
2022-08-08T20:06:14.186Z,100121.94
2022-08-08T20:08:30.227Z,100121.97
2022-08-08T20:11:03.112Z,100114.38
2022-08-08T20:14:31.545Z,100113.56
2022-08-08T20:16:19.957Z,100124.69
2022-08-08T20:18:53.897Z,100119.59
2022-08-08T20:21:25.582Z,100119.66
2022-08-08T20:23:58.243Z,100113.91
2022-08-08T20:26:30.228Z,100111.47
2022-08-08T20:29:02.040Z,100097.13
2022-08-08T20:32:07.389Z,100104.75
2022-08-08T20:34:30.175Z,100099.75
2022-08-08T20:37:00.363Z,100103.16
2022-08-08T20:39:39.242Z,100103.19
2022-08-08T20:42:16.867Z,100095.50
2022-08-08T20:44:44.777Z,100097.97
2022-08-08T20:47:22.887Z,100100.50
2022-08-08T20:49:54.526Z,100097.88
2022-08-08T20:52:27.515Z,100094.47
2022-08-08T20:54:55.621Z,100076.78
2022-08-08T20:57:27.139Z,100099.56
2022-08-08T20:59:57.308Z,100097.03
2022-08-08T21:02:27.515Z,100090.28
2022-08-08T21:05:01.301Z,100092.03
2022-08-08T21:07:47.328Z,100078.53
2022-08-08T21:10:20.840Z,100070.06
2022-08-08T21:12:54.197Z,100071.78
2022-08-08T21:16:04.908Z,100065.91
2022-08-08T21:18:12.142Z,100073.63
2022-08-08T21:20:43.168Z,100069.41
2022-08-08T21:23:18.676Z,100072.81
2022-08-08T21:25:54.829Z,100072.81
2022-08-08T21:28:35.562Z,100077.91
2022-08-08T21:31:05.805Z,100086.38
2022-08-08T21:33:50.367Z,100086.38
2022-08-08T21:36:28.896Z,100086.38
2022-08-08T21:38:57.987Z,100081.25
2022-08-08T21:41:38.656Z,100088.84
2022-08-08T21:44:14.683Z,100087.16
2022-08-08T21:48:05.363Z,100086.41
2022-08-08T21:49:33.413Z,100100.06
2022-08-08T21:54:31.086Z,100092.53
2022-08-08T21:54:53.813Z,100091.75
2022-08-08T21:57:43.104Z,100089.22
2022-08-08T22:00:26.199Z,100093.47
2022-08-08T22:02:54.310Z,100095.16
2022-08-08T22:05:22.993Z,100084.97
2022-08-08T22:07:52.320Z,100090.94
2022-08-08T22:10:37.277Z,100082.44
2022-08-08T22:13:17.814Z,100090.91
2022-08-08T22:15:58.881Z,100089.22
2022-08-08T22:18:30.926Z,100075.69
2022-08-08T22:21:08.337Z,100088.38
2022-08-08T22:23:50.542Z,100090.97
2022-08-08T22:26:29.990Z,100094.38
2022-08-08T22:29:14.755Z,100085.88
2022-08-08T22:31:58.245Z,100096.13
2022-08-08T22:34:30.436Z,100097.00
2022-08-08T22:36:58.318Z,100085.19
2022-08-08T22:39:45.682Z,100076.81
2022-08-08T22:42:14.147Z,100085.31
2022-08-08T22:44:52.396Z,100080.28
2022-08-08T22:47:20.294Z,100088.78
2022-08-08T22:49:53.715Z,100088.78
2022-08-08T22:52:25.966Z,100093.09
2022-08-08T22:55:04.479Z,100091.38
2022-08-08T22:57:44.250Z,100093.94
2022-08-08T23:00:18.165Z,100093.94
2022-08-08T23:02:50.022Z,100096.50
2022-08-08T23:05:21.495Z,100103.31
2022-08-08T23:07:57.571Z,100102.47
2022-08-08T23:10:28.320Z,100108.56
2022-08-08T23:12:56.429Z,100102.66
2022-08-08T23:16:38.623Z,100101.06
2022-08-08T23:18:13.249Z,100101.91
2022-08-08T23:20:43.359Z,100104.47
2022-08-08T23:23:12.509Z,100108.69
2022-08-08T23:25:47.805Z,100107.00
2022-08-08T23:28:18.892Z,100110.38
2022-08-08T23:30:47.911Z,100065.63
2022-08-08T23:33:20.919Z,100110.31
2022-08-08T23:36:08.614Z,100109.44
2022-08-08T23:38:44.227Z,100098.41
2022-08-08T23:41:24.921Z,100108.56
2022-08-08T23:43:56.348Z,100110.28
2022-08-08T23:49:05.194Z,100111.19
2022-08-08T23:49:18.699Z,100105.34
2022-08-08T23:52:04.726Z,100105.34
2022-08-08T23:54:41.603Z,100109.59
2022-08-08T23:57:15.197Z,100111.28
